sensor_id;sensor_type;location;lat;lon;timestamp;temperature;humidity
77700;DHT22;66867;42.658;23.320;2023-02-14T00:00:00;5.4;65
77700;DHT22;66867;42.658;23.320;2023-02-14T00:01:08;5.4;65
77700;DHT22;66867;42.658;23.320;2023-02-14T00:02:00;5.4;65
77700;DHT22;66867;42.658;23.320;2023-02-14T00:03:00;5.4;65
77700;DHT22;66867;42.658;23.320;2023-02-14T00:04:00;5.5;65
77700;DHT22;66867;42.658;23.320;2023-02-14T00:05:00;5.5;65
77700;DHT22;66867;42.658;23.320;2023-02-14T00:06:04;5.5;65
77700;DHT22;66867;42.658;23.320;2023-02-14T00:07:00;5.5;65
77700;DHT22;66867;42.658;23.320;2023-02-14T00:08:00;5.5;65
77700;DHT22;66867;42.658;23.320;2023-02-14T00:09:00;5.6;65
77700;DHT22;66867;42.658;23.320;2023-02-14T00:10:00;5.6;65
77700;DHT22;66867;42.658;23.320;2023-02-14T00:11:00;5.6;65
77700;DHT22;66867;42.658;23.320;2023-02-14T00:12:00;5.6;64
77700;DHT22;66867;42.658;23.320;2023-02-14T00:13:00;5.7;64
77700;DHT22;66867;42.658;23.320;2023-02-14T00:14:00;5.7;64
77700;DHT22;66867;42.658;23.320;2023-02-14T00:15:00;5.6;64
77700;DHT22;66867;42.658;23.320;2023-02-14T00:16:00;5.7;64
77700;DHT22;66867;42.658;23.320;2023-02-14T00:17:00;5.6;64
77700;DHT22;66867;42.658;23.320;2023-02-14T00:18:00;5.5;65
77700;DHT22;66867;42.658;23.320;2023-02-14T00:19:00;5.5;65
77700;DHT22;66867;42.658;23.320;2023-02-14T00:20:00;5.5;65
77700;DHT22;66867;42.658;23.320;2023-02-14T00:21:00;5.4;65
77700;DHT22;66867;42.658;23.320;2023-02-14T00:22:01;5.4;65
77700;DHT22;66867;42.658;23.320;2023-02-14T00:23:00;5.4;66
77700;DHT22;66867;42.658;23.320;2023-02-14T00:24:01;5.4;65
77700;DHT22;66867;42.658;23.320;2023-02-14T00:25:00;5.3;66
77700;DHT22;66867;42.658;23.320;2023-02-14T00:26:00;5.4;66
77700;DHT22;66867;42.658;23.320;2023-02-14T00:27:00;5.4;65
77700;DHT22;66867;42.658;23.320;2023-02-14T00:28:00;5.4;65
77700;DHT22;66867;42.658;23.320;2023-02-14T00:29:00;5.4;66
77700;DHT22;66867;42.658;23.320;2023-02-14T00:30:00;5.4;66
77700;DHT22;66867;42.658;23.320;2023-02-14T00:31:00;5.4;66
77700;DHT22;66867;42.658;23.320;2023-02-14T00:32:00;5.4;65
77700;DHT22;66867;42.658;23.320;2023-02-14T00:33:00;5.4;66
77700;DHT22;66867;42.658;23.320;2023-02-14T00:34:00;5.4;66
77700;DHT22;66867;42.658;23.320;2023-02-14T00:35:00;5.3;66
77700;DHT22;66867;42.658;23.320;2023-02-14T00:36:02;5.4;66
77700;DHT22;66867;42.658;23.320;2023-02-14T00:37:00;5.4;66
77700;DHT22;66867;42.658;23.320;2023-02-14T00:38:00;5.3;66
77700;DHT22;66867;42.658;23.320;2023-02-14T00:39:01;5.3;66
77700;DHT22;66867;42.658;23.320;2023-02-14T00:40:00;5.3;66
77700;DHT22;66867;42.658;23.320;2023-02-14T00:41:00;5.3;66
77700;DHT22;66867;42.658;23.320;2023-02-14T00:42:00;5.4;66
77700;DHT22;66867;42.658;23.320;2023-02-14T00:43:00;5.4;66
77700;DHT22;66867;42.658;23.320;2023-02-14T00:44:00;5.5;66
77700;DHT22;66867;42.658;23.320;2023-02-14T00:45:00;5.4;66
77700;DHT22;66867;42.658;23.320;2023-02-14T00:46:00;5.4;66
77700;DHT22;66867;42.658;23.320;2023-02-14T00:47:00;5.5;66
77700;DHT22;66867;42.658;23.320;2023-02-14T00:48:00;5.5;66
77700;DHT22;66867;42.658;23.320;2023-02-14T00:49:00;5.4;66
77700;DHT22;66867;42.658;23.320;2023-02-14T00:50:00;5.4;66
77700;DHT22;66867;42.658;23.320;2023-02-14T00:51:00;5.4;66
77700;DHT22;66867;42.658;23.320;2023-02-14T00:52:00;5.4;66
77700;DHT22;66867;42.658;23.320;2023-02-14T00:53:00;5.4;66
77700;DHT22;66867;42.658;23.320;2023-02-14T00:54:00;5.4;66
77700;DHT22;66867;42.658;23.320;2023-02-14T00:55:00;5.4;66
77700;DHT22;66867;42.658;23.320;2023-02-14T00:56:00;5.4;66
77700;DHT22;66867;42.658;23.320;2023-02-14T00:57:00;5.5;66
77700;DHT22;66867;42.658;23.320;2023-02-14T00:58:00;5.5;66
77700;DHT22;66867;42.658;23.320;2023-02-14T00:59:00;5.6;66
77700;DHT22;66867;42.658;23.320;2023-02-14T01:00:00;5.5;66
77700;DHT22;66867;42.658;23.320;2023-02-14T01:01:00;5.5;66
77700;DHT22;66867;42.658;23.320;2023-02-14T01:02:00;5.4;66
77700;DHT22;66867;42.658;23.320;2023-02-14T01:03:00;5.4;66
77700;DHT22;66867;42.658;23.320;2023-02-14T01:04:00;5.3;66
77700;DHT22;66867;42.658;23.320;2023-02-14T01:05:00;5.2;67
77700;DHT22;66867;42.658;23.320;2023-02-14T01:06:00;5.2;67
77700;DHT22;66867;42.658;23.320;2023-02-14T01:07:00;5.3;66
77700;DHT22;66867;42.658;23.320;2023-02-14T01:08:00;5.3;66
77700;DHT22;66867;42.658;23.320;2023-02-14T01:09:00;5.3;66
77700;DHT22;66867;42.658;23.320;2023-02-14T01:10:00;5.2;66
77700;DHT22;66867;42.658;23.320;2023-02-14T01:11:09;5.2;67
77700;DHT22;66867;42.658;23.320;2023-02-14T01:12:00;5.2;67
77700;DHT22;66867;42.658;23.320;2023-02-14T01:13:00;5.3;66
77700;DHT22;66867;42.658;23.320;2023-02-14T01:14:00;5.3;66
77700;DHT22;66867;42.658;23.320;2023-02-14T01:15:00;5.3;66
77700;DHT22;66867;42.658;23.320;2023-02-14T01:16:03;5.4;66
77700;DHT22;66867;42.658;23.320;2023-02-14T01:17:00;5.4;66
77700;DHT22;66867;42.658;23.320;2023-02-14T01:18:00;5.4;66
77700;DHT22;66867;42.658;23.320;2023-02-14T01:19:00;5.4;66
77700;DHT22;66867;42.658;23.320;2023-02-14T01:20:00;5.4;66
77700;DHT22;66867;42.658;23.320;2023-02-14T01:21:09;5.4;66
77700;DHT22;66867;42.658;23.320;2023-02-14T01:22:00;5.4;66
77700;DHT22;66867;42.658;23.320;2023-02-14T01:23:00;5.3;66
77700;DHT22;66867;42.658;23.320;2023-02-14T01:24:02;5.4;66
77700;DHT22;66867;42.658;23.320;2023-02-14T01:25:00;5.4;66
77700;DHT22;66867;42.658;23.320;2023-02-14T01:26:04;5.4;66
77700;DHT22;66867;42.658;23.320;2023-02-14T01:27:00;5.4;66
77700;DHT22;66867;42.658;23.320;2023-02-14T01:28:00;5.4;66
77700;DHT22;66867;42.658;23.320;2023-02-14T01:29:00;5.3;66
77700;DHT22;66867;42.658;23.320;2023-02-14T01:30:00;5.4;66
77700;DHT22;66867;42.658;23.320;2023-02-14T01:31:09;5.4;66
77700;DHT22;66867;42.658;23.320;2023-02-14T01:32:00;5.4;66
77700;DHT22;66867;42.658;23.320;2023-02-14T01:33:00;5.5;66
77700;DHT22;66867;42.658;23.320;2023-02-14T01:34:00;5.4;66
77700;DHT22;66867;42.658;23.320;2023-02-14T01:35:00;5.4;66
77700;DHT22;66867;42.658;23.320;2023-02-14T01:36:00;5.4;66
77700;DHT22;66867;42.658;23.320;2023-02-14T01:37:00;5.4;66
77700;DHT22;66867;42.658;23.320;2023-02-14T01:38:00;5.4;66
77700;DHT22;66867;42.658;23.320;2023-02-14T01:39:02;5.5;66
77700;DHT22;66867;42.658;23.320;2023-02-14T01:40:00;5.4;66
77700;DHT22;66867;42.658;23.320;2023-02-14T01:41:00;5.4;66
77700;DHT22;66867;42.658;23.320;2023-02-14T01:42:00;5.4;66
77700;DHT22;66867;42.658;23.320;2023-02-14T01:43:00;5.4;66
77700;DHT22;66867;42.658;23.320;2023-02-14T01:44:02;5.5;66
77700;DHT22;66867;42.658;23.320;2023-02-14T01:45:01;5.4;66
77700;DHT22;66867;42.658;23.320;2023-02-14T01:46:00;5.4;66
77700;DHT22;66867;42.658;23.320;2023-02-14T01:47:01;5.5;66
77700;DHT22;66867;42.658;23.320;2023-02-14T01:48:00;5.4;66
77700;DHT22;66867;42.658;23.320;2023-02-14T01:50:02;5.4;66
77700;DHT22;66867;42.658;23.320;2023-02-14T01:51:00;5.4;66
77700;DHT22;66867;42.658;23.320;2023-02-14T01:52:09;5.4;66
77700;DHT22;66867;42.658;23.320;2023-02-14T01:54:00;5.4;66
77700;DHT22;66867;42.658;23.320;2023-02-14T01:55:01;5.4;66
77700;DHT22;66867;42.658;23.320;2023-02-14T01:56:03;5.5;65
77700;DHT22;66867;42.658;23.320;2023-02-14T01:57:01;5.4;65
77700;DHT22;66867;42.658;23.320;2023-02-14T01:58:01;5.5;65
77700;DHT22;66867;42.658;23.320;2023-02-14T01:59:00;5.5;65
77700;DHT22;66867;42.658;23.320;2023-02-14T02:00:00;5.5;65
77700;DHT22;66867;42.658;23.320;2023-02-14T02:01:01;5.4;66
77700;DHT22;66867;42.658;23.320;2023-02-14T02:02:00;5.4;65
77700;DHT22;66867;42.658;23.320;2023-02-14T02:03:00;5.5;65
77700;DHT22;66867;42.658;23.320;2023-02-14T02:04:04;5.5;65
77700;DHT22;66867;42.658;23.320;2023-02-14T02:05:00;5.5;65
77700;DHT22;66867;42.658;23.320;2023-02-14T02:06:04;5.5;65
77700;DHT22;66867;42.658;23.320;2023-02-14T02:07:02;5.6;65
77700;DHT22;66867;42.658;23.320;2023-02-14T02:08:00;5.6;65
77700;DHT22;66867;42.658;23.320;2023-02-14T02:09:19;5.5;65
77700;DHT22;66867;42.658;23.320;2023-02-14T02:10:01;5.5;65
77700;DHT22;66867;42.658;23.320;2023-02-14T02:11:00;5.5;65
77700;DHT22;66867;42.658;23.320;2023-02-14T02:12:00;5.5;65
77700;DHT22;66867;42.658;23.320;2023-02-14T02:13:02;5.5;65
77700;DHT22;66867;42.658;23.320;2023-02-14T02:14:00;5.4;66
77700;DHT22;66867;42.658;23.320;2023-02-14T02:15:00;5.3;66
77700;DHT22;66867;42.658;23.320;2023-02-14T02:16:11;5.3;66
77700;DHT22;66867;42.658;23.320;2023-02-14T02:17:07;5.2;66
77700;DHT22;66867;42.658;23.320;2023-02-14T02:25:04;5.5;65
77700;DHT22;66867;42.658;23.320;2023-02-14T02:26:22;5.5;65
77700;DHT22;66867;42.658;23.320;2023-02-14T02:29:06;5.4;65
77700;DHT22;66867;42.658;23.320;2023-02-14T02:35:03;5.2;66
77700;DHT22;66867;42.658;23.320;2023-02-14T02:45:20;5.3;66
77700;DHT22;66867;42.658;23.320;2023-02-14T02:46:19;5.3;66
77700;DHT22;66867;42.658;23.320;2023-02-14T02:47:05;5.4;66
77700;DHT22;66867;42.658;23.320;2023-02-14T02:49:07;5.4;65
77700;DHT22;66867;42.658;23.320;2023-02-14T02:51:00;5.4;65
77700;DHT22;66867;42.658;23.320;2023-02-14T02:52:00;5.4;65
77700;DHT22;66867;42.658;23.320;2023-02-14T02:54:03;5.3;66
77700;DHT22;66867;42.658;23.320;2023-02-14T02:55:02;5.3;66
77700;DHT22;66867;42.658;23.320;2023-02-14T02:57:00;5.4;65
77700;DHT22;66867;42.658;23.320;2023-02-14T02:58:00;5.5;65
77700;DHT22;66867;42.658;23.320;2023-02-14T02:59:09;5.5;65
77700;DHT22;66867;42.658;23.320;2023-02-14T03:00:01;5.4;65
77700;DHT22;66867;42.658;23.320;2023-02-14T03:01:00;5.4;65
77700;DHT22;66867;42.658;23.320;2023-02-14T03:03:00;5.4;65
77700;DHT22;66867;42.658;23.320;2023-02-14T03:04:02;5.5;65
77700;DHT22;66867;42.658;23.320;2023-02-14T03:05:01;5.5;65
77700;DHT22;66867;42.658;23.320;2023-02-14T03:06:00;5.5;65
77700;DHT22;66867;42.658;23.320;2023-02-14T03:07:00;5.6;65
77700;DHT22;66867;42.658;23.320;2023-02-14T03:08:00;5.4;65
77700;DHT22;66867;42.658;23.320;2023-02-14T03:10:03;5.4;65
77700;DHT22;66867;42.658;23.320;2023-02-14T03:11:00;5.4;65
77700;DHT22;66867;42.658;23.320;2023-02-14T03:14:03;5.3;66
77700;DHT22;66867;42.658;23.320;2023-02-14T03:15:05;5.3;66
77700;DHT22;66867;42.658;23.320;2023-02-14T03:16:20;5.4;66
77700;DHT22;66867;42.658;23.320;2023-02-14T03:17:03;5.4;65
77700;DHT22;66867;42.658;23.320;2023-02-14T03:18:09;5.4;65
77700;DHT22;66867;42.658;23.320;2023-02-14T03:21:19;5.5;65
77700;DHT22;66867;42.658;23.320;2023-02-14T03:22:12;5.5;65
77700;DHT22;66867;42.658;23.320;2023-02-14T03:23:03;5.5;65
77700;DHT22;66867;42.658;23.320;2023-02-14T03:24:04;5.6;65
77700;DHT22;66867;42.658;23.320;2023-02-14T03:25:04;5.5;65
77700;DHT22;66867;42.658;23.320;2023-02-14T03:29:01;5.5;65
77700;DHT22;66867;42.658;23.320;2023-02-14T03:31:03;5.4;65
77700;DHT22;66867;42.658;23.320;2023-02-14T03:32:02;5.3;65
77700;DHT22;66867;42.658;23.320;2023-02-14T03:33:02;5.3;65
77700;DHT22;66867;42.658;23.320;2023-02-14T03:34:03;5.3;65
77700;DHT22;66867;42.658;23.320;2023-02-14T03:35:04;5.3;65
77700;DHT22;66867;42.658;23.320;2023-02-14T03:37:05;5.2;66
77700;DHT22;66867;42.658;23.320;2023-02-14T03:39:02;5.2;65
77700;DHT22;66867;42.658;23.320;2023-02-14T03:41:01;5.2;66
77700;DHT22;66867;42.658;23.320;2023-02-14T03:42:01;5.2;66
77700;DHT22;66867;42.658;23.320;2023-02-14T03:43:02;5.1;66
77700;DHT22;66867;42.658;23.320;2023-02-14T03:44:01;5.1;66
77700;DHT22;66867;42.658;23.320;2023-02-14T03:45:01;5.1;66
77700;DHT22;66867;42.658;23.320;2023-02-14T03:46:02;5.2;66
77700;DHT22;66867;42.658;23.320;2023-02-14T03:47:02;5.2;66
77700;DHT22;66867;42.658;23.320;2023-02-14T03:48:01;5.2;66
77700;DHT22;66867;42.658;23.320;2023-02-14T03:49:02;5.1;66
77700;DHT22;66867;42.658;23.320;2023-02-14T03:50:01;5.1;66
77700;DHT22;66867;42.658;23.320;2023-02-14T03:51:00;5.0;66
77700;DHT22;66867;42.658;23.320;2023-02-14T03:52:00;5.1;66
77700;DHT22;66867;42.658;23.320;2023-02-14T03:53:00;5.0;66
77700;DHT22;66867;42.658;23.320;2023-02-14T03:54:00;5.0;66
77700;DHT22;66867;42.658;23.320;2023-02-14T03:55:00;5.0;66
77700;DHT22;66867;42.658;23.320;2023-02-14T03:56:01;5.1;66
77700;DHT22;66867;42.658;23.320;2023-02-14T03:58:05;5.0;66
77700;DHT22;66867;42.658;23.320;2023-02-14T03:59:03;5.0;66
77700;DHT22;66867;42.658;23.320;2023-02-14T04:00:00;5.0;66
77700;DHT22;66867;42.658;23.320;2023-02-14T04:01:10;5.1;66
77700;DHT22;66867;42.658;23.320;2023-02-14T04:03:01;5.1;66
77700;DHT22;66867;42.658;23.320;2023-02-14T04:04:00;5.1;66
77700;DHT22;66867;42.658;23.320;2023-02-14T04:05:00;5.1;66
77700;DHT22;66867;42.658;23.320;2023-02-14T04:06:00;5.1;66
77700;DHT22;66867;42.658;23.320;2023-02-14T04:07:17;5.1;66
77700;DHT22;66867;42.658;23.320;2023-02-14T04:08:00;5.1;66
77700;DHT22;66867;42.658;23.320;2023-02-14T04:09:00;5.0;66
77700;DHT22;66867;42.658;23.320;2023-02-14T04:10:00;4.9;66
77700;DHT22;66867;42.658;23.320;2023-02-14T04:11:00;4.9;66
77700;DHT22;66867;42.658;23.320;2023-02-14T04:12:00;4.9;66
77700;DHT22;66867;42.658;23.320;2023-02-14T04:13:00;4.8;67
77700;DHT22;66867;42.658;23.320;2023-02-14T04:14:00;4.9;66
77700;DHT22;66867;42.658;23.320;2023-02-14T04:15:00;5.0;66
77700;DHT22;66867;42.658;23.320;2023-02-14T04:16:00;5.0;66
77700;DHT22;66867;42.658;23.320;2023-02-14T04:17:00;5.1;66
77700;DHT22;66867;42.658;23.320;2023-02-14T04:18:00;5.1;66
77700;DHT22;66867;42.658;23.320;2023-02-14T04:19:00;5.0;66
77700;DHT22;66867;42.658;23.320;2023-02-14T04:20:00;5.0;66
77700;DHT22;66867;42.658;23.320;2023-02-14T04:21:00;5.0;66
77700;DHT22;66867;42.658;23.320;2023-02-14T04:22:00;4.9;66
77700;DHT22;66867;42.658;23.320;2023-02-14T04:23:00;4.9;66
77700;DHT22;66867;42.658;23.320;2023-02-14T04:24:00;4.9;66
77700;DHT22;66867;42.658;23.320;2023-02-14T04:25:00;4.9;66
77700;DHT22;66867;42.658;23.320;2023-02-14T04:26:00;4.9;66
77700;DHT22;66867;42.658;23.320;2023-02-14T04:27:00;4.9;66
77700;DHT22;66867;42.658;23.320;2023-02-14T04:28:00;4.9;66
77700;DHT22;66867;42.658;23.320;2023-02-14T04:29:00;4.9;66
77700;DHT22;66867;42.658;23.320;2023-02-14T04:30:00;4.9;66
77700;DHT22;66867;42.658;23.320;2023-02-14T04:31:01;4.9;66
77700;DHT22;66867;42.658;23.320;2023-02-14T04:32:00;4.9;66
77700;DHT22;66867;42.658;23.320;2023-02-14T04:33:00;4.9;66
77700;DHT22;66867;42.658;23.320;2023-02-14T04:34:00;5.0;66
77700;DHT22;66867;42.658;23.320;2023-02-14T04:35:00;4.9;66
77700;DHT22;66867;42.658;23.320;2023-02-14T04:36:00;4.9;66
77700;DHT22;66867;42.658;23.320;2023-02-14T04:37:00;4.9;66
77700;DHT22;66867;42.658;23.320;2023-02-14T04:38:00;4.9;66
77700;DHT22;66867;42.658;23.320;2023-02-14T04:39:00;4.9;66
77700;DHT22;66867;42.658;23.320;2023-02-14T04:40:00;5.0;66
77700;DHT22;66867;42.658;23.320;2023-02-14T04:41:00;5.0;66
77700;DHT22;66867;42.658;23.320;2023-02-14T04:42:00;5.0;66
77700;DHT22;66867;42.658;23.320;2023-02-14T04:43:00;5.0;66
77700;DHT22;66867;42.658;23.320;2023-02-14T04:44:00;4.9;66
77700;DHT22;66867;42.658;23.320;2023-02-14T04:45:00;4.9;66
77700;DHT22;66867;42.658;23.320;2023-02-14T04:46:00;4.8;66
77700;DHT22;66867;42.658;23.320;2023-02-14T04:47:00;4.9;66
77700;DHT22;66867;42.658;23.320;2023-02-14T04:48:00;4.9;66
77700;DHT22;66867;42.658;23.320;2023-02-14T04:49:00;4.8;66
77700;DHT22;66867;42.658;23.320;2023-02-14T04:50:00;4.9;66
77700;DHT22;66867;42.658;23.320;2023-02-14T04:51:00;4.9;66
77700;DHT22;66867;42.658;23.320;2023-02-14T04:52:00;4.8;66
77700;DHT22;66867;42.658;23.320;2023-02-14T04:53:00;4.8;66
77700;DHT22;66867;42.658;23.320;2023-02-14T04:54:00;4.9;66
77700;DHT22;66867;42.658;23.320;2023-02-14T04:55:00;4.9;66
77700;DHT22;66867;42.658;23.320;2023-02-14T04:56:00;4.9;66
77700;DHT22;66867;42.658;23.320;2023-02-14T04:57:00;4.9;66
77700;DHT22;66867;42.658;23.320;2023-02-14T04:58:00;4.9;66
77700;DHT22;66867;42.658;23.320;2023-02-14T04:59:00;4.9;66
77700;DHT22;66867;42.658;23.320;2023-02-14T05:00:00;4.9;66
77700;DHT22;66867;42.658;23.320;2023-02-14T05:01:00;4.9;66
77700;DHT22;66867;42.658;23.320;2023-02-14T05:02:00;5.0;66
77700;DHT22;66867;42.658;23.320;2023-02-14T05:03:00;4.9;66
77700;DHT22;66867;42.658;23.320;2023-02-14T05:04:00;4.9;66
77700;DHT22;66867;42.658;23.320;2023-02-14T05:05:00;4.9;66
77700;DHT22;66867;42.658;23.320;2023-02-14T05:06:00;4.9;66
77700;DHT22;66867;42.658;23.320;2023-02-14T05:07:00;4.8;66
77700;DHT22;66867;42.658;23.320;2023-02-14T05:08:00;4.9;66
77700;DHT22;66867;42.658;23.320;2023-02-14T05:09:00;4.8;66
77700;DHT22;66867;42.658;23.320;2023-02-14T05:10:00;4.8;66
77700;DHT22;66867;42.658;23.320;2023-02-14T05:11:00;4.8;66
77700;DHT22;66867;42.658;23.320;2023-02-14T05:12:00;4.9;66
77700;DHT22;66867;42.658;23.320;2023-02-14T05:13:00;4.9;66
77700;DHT22;66867;42.658;23.320;2023-02-14T05:14:00;4.8;66
77700;DHT22;66867;42.658;23.320;2023-02-14T05:15:00;4.8;66
77700;DHT22;66867;42.658;23.320;2023-02-14T05:16:00;4.7;66
77700;DHT22;66867;42.658;23.320;2023-02-14T05:17:00;4.7;66
77700;DHT22;66867;42.658;23.320;2023-02-14T05:18:00;4.8;66
77700;DHT22;66867;42.658;23.320;2023-02-14T05:19:00;4.8;66
77700;DHT22;66867;42.658;23.320;2023-02-14T05:20:00;4.7;66
77700;DHT22;66867;42.658;23.320;2023-02-14T05:21:00;4.8;66
77700;DHT22;66867;42.658;23.320;2023-02-14T05:22:00;4.7;66
77700;DHT22;66867;42.658;23.320;2023-02-14T05:23:00;4.8;66
77700;DHT22;66867;42.658;23.320;2023-02-14T05:24:00;4.9;66
77700;DHT22;66867;42.658;23.320;2023-02-14T05:25:00;4.9;66
77700;DHT22;66867;42.658;23.320;2023-02-14T05:26:00;4.8;66
77700;DHT22;66867;42.658;23.320;2023-02-14T05:27:00;4.8;66
77700;DHT22;66867;42.658;23.320;2023-02-14T05:28:00;4.8;66
77700;DHT22;66867;42.658;23.320;2023-02-14T05:29:00;4.9;66
77700;DHT22;66867;42.658;23.320;2023-02-14T05:30:00;4.8;66
77700;DHT22;66867;42.658;23.320;2023-02-14T05:31:00;4.8;66
77700;DHT22;66867;42.658;23.320;2023-02-14T05:32:00;4.7;67
77700;DHT22;66867;42.658;23.320;2023-02-14T05:33:00;4.7;67
77700;DHT22;66867;42.658;23.320;2023-02-14T05:34:00;4.7;67
77700;DHT22;66867;42.658;23.320;2023-02-14T05:35:00;4.8;67
77700;DHT22;66867;42.658;23.320;2023-02-14T05:36:00;4.7;67
77700;DHT22;66867;42.658;23.320;2023-02-14T05:37:00;4.7;67
77700;DHT22;66867;42.658;23.320;2023-02-14T05:38:00;4.7;67
77700;DHT22;66867;42.658;23.320;2023-02-14T05:39:00;4.7;67
77700;DHT22;66867;42.658;23.320;2023-02-14T05:40:00;4.7;67
77700;DHT22;66867;42.658;23.320;2023-02-14T05:41:00;4.7;67
77700;DHT22;66867;42.658;23.320;2023-02-14T05:42:00;4.6;68
77700;DHT22;66867;42.658;23.320;2023-02-14T05:43:00;4.7;67
77700;DHT22;66867;42.658;23.320;2023-02-14T05:44:00;4.7;67
77700;DHT22;66867;42.658;23.320;2023-02-14T06:01:00;5.0;70
77700;DHT22;66867;42.658;23.320;2023-02-14T06:02:00;5.1;70
77700;DHT22;66867;42.658;23.320;2023-02-14T06:03:00;5.1;70
77700;DHT22;66867;42.658;23.320;2023-02-14T06:04:00;5.2;70
77700;DHT22;66867;42.658;23.320;2023-02-14T06:05:00;5.4;69
77700;DHT22;66867;42.658;23.320;2023-02-14T06:06:00;5.5;69
77700;DHT22;66867;42.658;23.320;2023-02-14T06:07:00;5.5;67
77700;DHT22;66867;42.658;23.320;2023-02-14T06:08:00;5.5;68
77700;DHT22;66867;42.658;23.320;2023-02-14T06:09:00;5.6;67
77700;DHT22;66867;42.658;23.320;2023-02-14T06:10:00;5.5;66
77700;DHT22;66867;42.658;23.320;2023-02-14T06:11:00;5.6;66
77700;DHT22;66867;42.658;23.320;2023-02-14T06:12:00;5.6;66
77700;DHT22;66867;42.658;23.320;2023-02-14T06:13:00;5.6;66
77700;DHT22;66867;42.658;23.320;2023-02-14T06:14:00;5.7;66
77700;DHT22;66867;42.658;23.320;2023-02-14T06:15:00;5.6;66
77700;DHT22;66867;42.658;23.320;2023-02-14T06:16:01;5.7;66
77700;DHT22;66867;42.658;23.320;2023-02-14T06:17:00;5.6;66
77700;DHT22;66867;42.658;23.320;2023-02-14T06:18:00;5.6;66
77700;DHT22;66867;42.658;23.320;2023-02-14T06:19:00;5.5;67
77700;DHT22;66867;42.658;23.320;2023-02-14T06:20:00;5.7;66
77700;DHT22;66867;42.658;23.320;2023-02-14T06:21:00;5.6;66
77700;DHT22;66867;42.658;23.320;2023-02-14T06:22:00;5.5;67
77700;DHT22;66867;42.658;23.320;2023-02-14T06:23:00;5.6;66
77700;DHT22;66867;42.658;23.320;2023-02-14T06:24:00;5.7;66
77700;DHT22;66867;42.658;23.320;2023-02-14T06:25:00;5.8;68
77700;DHT22;66867;42.658;23.320;2023-02-14T06:26:00;5.8;66
77700;DHT22;66867;42.658;23.320;2023-02-14T06:27:00;5.7;66
77700;DHT22;66867;42.658;23.320;2023-02-14T06:28:00;5.8;66
77700;DHT22;66867;42.658;23.320;2023-02-14T06:29:01;5.8;66
77700;DHT22;66867;42.658;23.320;2023-02-14T06:30:00;5.8;66
77700;DHT22;66867;42.658;23.320;2023-02-14T06:36:00;5.7;66
77700;DHT22;66867;42.658;23.320;2023-02-14T06:37:00;5.7;66
77700;DHT22;66867;42.658;23.320;2023-02-14T06:38:00;5.7;66
77700;DHT22;66867;42.658;23.320;2023-02-14T06:39:00;5.7;66
77700;DHT22;66867;42.658;23.320;2023-02-14T06:43:00;5.8;66
77700;DHT22;66867;42.658;23.320;2023-02-14T06:44:00;5.8;66
77700;DHT22;66867;42.658;23.320;2023-02-14T06:45:00;5.8;66
77700;DHT22;66867;42.658;23.320;2023-02-14T06:46:00;5.7;66
77700;DHT22;66867;42.658;23.320;2023-02-14T06:47:00;5.6;66
77700;DHT22;66867;42.658;23.320;2023-02-14T06:48:00;5.7;67
77700;DHT22;66867;42.658;23.320;2023-02-14T06:49:00;5.7;66
77700;DHT22;66867;42.658;23.320;2023-02-14T07:07:00;5.6;67
77700;DHT22;66867;42.658;23.320;2023-02-14T07:08:00;5.6;67
77700;DHT22;66867;42.658;23.320;2023-02-14T07:09:00;5.6;67
77700;DHT22;66867;42.658;23.320;2023-02-14T07:10:00;5.6;67
77700;DHT22;66867;42.658;23.320;2023-02-14T07:11:00;5.6;67
77700;DHT22;66867;42.658;23.320;2023-02-14T07:12:00;5.7;67
77700;DHT22;66867;42.658;23.320;2023-02-14T07:13:00;5.7;67
77700;DHT22;66867;42.658;23.320;2023-02-14T07:15:00;5.7;67
77700;DHT22;66867;42.658;23.320;2023-02-14T07:16:00;5.7;67
77700;DHT22;66867;42.658;23.320;2023-02-14T07:17:00;5.6;67
77700;DHT22;66867;42.658;23.320;2023-02-14T07:18:00;5.7;67
77700;DHT22;66867;42.658;23.320;2023-02-14T07:19:00;5.7;67
77700;DHT22;66867;42.658;23.320;2023-02-14T07:20:00;5.7;67
77700;DHT22;66867;42.658;23.320;2023-02-14T07:21:00;5.7;67
77700;DHT22;66867;42.658;23.320;2023-02-14T07:22:00;5.7;67
77700;DHT22;66867;42.658;23.320;2023-02-14T07:23:00;5.7;67
77700;DHT22;66867;42.658;23.320;2023-02-14T07:24:00;5.7;68
77700;DHT22;66867;42.658;23.320;2023-02-14T07:25:00;5.9;67
77700;DHT22;66867;42.658;23.320;2023-02-14T07:26:00;5.9;67
77700;DHT22;66867;42.658;23.320;2023-02-14T07:27:00;5.8;67
77700;DHT22;66867;42.658;23.320;2023-02-14T07:28:00;5.7;68
77700;DHT22;66867;42.658;23.320;2023-02-14T07:29:00;5.6;68
77700;DHT22;66867;42.658;23.320;2023-02-14T07:30:00;5.7;68
77700;DHT22;66867;42.658;23.320;2023-02-14T07:31:00;5.8;68
77700;DHT22;66867;42.658;23.320;2023-02-14T07:32:00;5.8;68
77700;DHT22;66867;42.658;23.320;2023-02-14T07:33:00;5.7;68
77700;DHT22;66867;42.658;23.320;2023-02-14T07:34:00;5.7;68
77700;DHT22;66867;42.658;23.320;2023-02-14T07:35:00;5.7;68
77700;DHT22;66867;42.658;23.320;2023-02-14T07:36:03;5.7;68
77700;DHT22;66867;42.658;23.320;2023-02-14T07:37:00;5.7;68
77700;DHT22;66867;42.658;23.320;2023-02-14T07:38:00;5.6;69
77700;DHT22;66867;42.658;23.320;2023-02-14T07:39:00;5.6;68
77700;DHT22;66867;42.658;23.320;2023-02-14T07:40:00;5.6;68
77700;DHT22;66867;42.658;23.320;2023-02-14T07:41:00;5.6;69
77700;DHT22;66867;42.658;23.320;2023-02-14T07:42:00;5.6;69
77700;DHT22;66867;42.658;23.320;2023-02-14T07:43:00;5.6;69
77700;DHT22;66867;42.658;23.320;2023-02-14T07:44:00;5.6;69
77700;DHT22;66867;42.658;23.320;2023-02-14T07:45:00;5.7;68
77700;DHT22;66867;42.658;23.320;2023-02-14T07:46:00;5.7;69
77700;DHT22;66867;42.658;23.320;2023-02-14T07:47:00;5.7;69
77700;DHT22;66867;42.658;23.320;2023-02-14T07:48:00;5.8;69
77700;DHT22;66867;42.658;23.320;2023-02-14T07:49:00;5.8;69
77700;DHT22;66867;42.658;23.320;2023-02-14T07:50:00;5.7;69
77700;DHT22;66867;42.658;23.320;2023-02-14T07:51:00;5.8;69
77700;DHT22;66867;42.658;23.320;2023-02-14T07:52:00;5.8;69
77700;DHT22;66867;42.658;23.320;2023-02-14T07:53:00;5.7;70
77700;DHT22;66867;42.658;23.320;2023-02-14T07:54:00;5.6;70
77700;DHT22;66867;42.658;23.320;2023-02-14T07:55:00;5.6;70
77700;DHT22;66867;42.658;23.320;2023-02-14T07:56:00;5.6;70
77700;DHT22;66867;42.658;23.320;2023-02-14T07:57:00;5.5;71
77700;DHT22;66867;42.658;23.320;2023-02-14T07:58:00;5.6;71
77700;DHT22;66867;42.658;23.320;2023-02-14T07:59:00;5.6;71
77700;DHT22;66867;42.658;23.320;2023-02-14T08:00:00;5.5;71
77700;DHT22;66867;42.658;23.320;2023-02-14T08:01:00;5.6;71
77700;DHT22;66867;42.658;23.320;2023-02-14T08:02:00;5.5;72
77700;DHT22;66867;42.658;23.320;2023-02-14T08:03:00;5.5;72
77700;DHT22;66867;42.658;23.320;2023-02-14T08:04:00;5.4;72
77700;DHT22;66867;42.658;23.320;2023-02-14T08:05:00;5.4;72
77700;DHT22;66867;42.658;23.320;2023-02-14T08:06:00;5.5;72
77700;DHT22;66867;42.658;23.320;2023-02-14T08:07:00;5.4;72
77700;DHT22;66867;42.658;23.320;2023-02-14T08:08:00;5.4;72
77700;DHT22;66867;42.658;23.320;2023-02-14T08:09:00;5.4;73
77700;DHT22;66867;42.658;23.320;2023-02-14T08:10:00;5.2;73